Terminal Aerodrome Forecast
Issued by NWS Sterling, VA

Home | Current Version | Previous Version | Text Only | Print | Product List | Glossary On
Versions: 1 2 3 4 5 6 7 8 9 10 11 12 13 14 15 16 17
000
FTUS41 KLWX 041744
TAFMRB
TAF
KMRB 041744Z 0418/0518 19010G17KT P6SM SKC
     FM050200 20006KT P6SM SCT090
     FM051000 22004KT P6SM BKN050
     FM051700 28006KT P6SM BKN080=

USA.gov is the U.S. government's official web portal to all federal, state and local government web resources and services.